Hlavní strana
METAR-TAF:

METAR-TAF

Letiště :

Saurimo, Angola

zeměpisná šířka: 9-41-20S, zeměpisná délka: 20-25-55E, výška: 1092 m

Aktuální stav počasí

Zpráva byla vytvořena před 29 minutami, v 13:00 UTC
Bezvětří
Teplota 32°C
Vlhkost vzduchu 41%
Tlak 1018 hPa
Viditelnost 10 km a více
Polojasno ve výšce 2500 ft
Oblačno až skoro zataženo ve výšce 10000 ft

METAR: FNSA 261300Z 00000KT 9999 SCT025 BKN100 32/17 Q1018

Čas: 14:29 (13:29 UTC)

Předpověď počasí

Zpráva byla vytvořena před 2 hodinami a 29 minutami, v 11:00 UTC
Předpověď platná od 26 v 12 UTC do 26 v 24 UTC
Severozápadní vítr 5 kt
Viditelnost 10 km a více
Oblačno až skoro zataženo ve výšce 2400 ft
Dočasný
od 26 v 15 UTC do 26 v 17 UTC
vítr z různých směrů 3 kt
Změna
od 26 v 18 UTC do 26 v 21 UTC
Viditelnost 10 km a více
Žádná oblačnost pod 1500 m, nevyskytují se cumulonimby.
Změna
od 26 v 22 UTC do 26 v 24 UTC
Východojihovýchodní vítr 5 kt

TAF: FNSA 261100Z 2612/2624 31005KT 9999 BKN024 TEMPO 2615/2617 VRB03KT BECMG 2618/2621 CAVOK BECMG 2622/2624 12005KT

Stav a předpovědi počasí z více než 4 000 letišť (zprávy METAR a TAF).

Červené a žluté tečky na mapě představují dostupné meteorologické stanice.

Když kurzor umístíte na tečku, zobrazí se název stanice.

Pak kliknutím zobrazíte stav a předpověď počasí.

Chcete-li změnit mapu, kliknutím na zelené tlačítko se znaménkem +mapu přiblížíte, kliknutím na zelené tlačítko se znaménkem – mapu oddálíte a kliknutím na zelené šipky přejdete na sousední mapy.


METAR-TAF: